Time;durP1;ratioP1;P1;durP2;ratioP2;P2;SDS_P1;SDS_P2;PMS_P1;PMS_P2;Temp;Humidity;BMP_temperature;BMP_pressure;BME280_temperature;BME280_humidity;BME280_pressure;Samples;Min_cycle;Max_cycle;Signal;HPM_P1;HPM_P2
2022/12/15 00:38:54;;;;;;;16.45;8.50;;;;;;;1.69;66.61;100764.69;5050437;28;20044;-43
2022/12/15 00:41:19;;;;;;;16.88;8.27;;;;;;;1.69;67.27;100764.69;5050089;28;20439;-44
2022/12/15 00:43:45;;;;;;;15.10;8.05;;;;;;;1.73;67.13;100770.84;5049954;28;20110;-47
2022/12/15 00:48:55;;;;;;;14.93;7.82;;;;;;;1.73;66.82;100774.31;5059277;28;20126;-44
2022/12/15 00:51:20;;;;;;;16.30;8.23;;;;;;;1.78;67.60;100779.66;5055748;28;20391;-40
2022/12/15 01:21:09;;;;;;;16.10;8.48;;;;;;;1.95;66.88;100794.19;5055579;28;20421;-42
2022/12/15 01:23:35;;;;;;;17.30;8.52;;;;;;;1.97;67.01;100784.84;5054098;28;20062;-41
2022/12/15 01:26:01;;;;;;;18.38;9.25;;;;;;;1.86;68.21;100791.19;5054085;28;20236;-42
2022/12/15 01:28:27;;;;;;;19.23;9.65;;;;;;;1.94;67.35;100795.00;5054684;28;20032;-41
2022/12/15 01:30:52;;;;;;;19.55;9.95;;;;;;;1.94;67.61;100800.16;5053280;28;20029;-40
2022/12/15 01:33:19;;;;;;;16.83;8.88;;;;;;;1.94;67.19;100807.84;5054298;28;20483;-42
2022/12/15 01:35:45;;;;;;;17.27;8.95;;;;;;;1.90;66.98;100804.25;5053969;28;20451;-42
2022/12/15 01:38:10;;;;;;;17.95;8.98;;;;;;;1.83;66.22;100801.34;5053307;28;20051;-42
2022/12/15 01:40:45;;;;;;;17.10;8.95;;;;;;;1.76;66.20;100801.84;5052967;28;20481;-42
2022/12/15 01:43:12;;;;;;;18.73;9.27;;;;;;;1.76;66.61;100805.31;5053159;28;20032;-40
2022/12/15 01:46:01;;;;;;;17.77;9.30;;;;;;;1.72;66.53;100803.38;5053418;28;20029;-43
2022/12/15 01:48:52;;;;;;;21.75;10.02;;;;;;;1.70;67.38;100807.59;5053347;28;20059;-44
2022/12/15 01:51:29;;;;;;;25.40;12.30;;;;;;;1.77;68.48;100808.75;5053013;28;20116;-47
2022/12/15 01:54:05;;;;;;;23.13;11.45;;;;;;;1.92;68.08;100805.19;5053995;28;20539;-45
2022/12/15 01:56:36;;;;;;;26.63;12.75;;;;;;;1.95;67.78;100805.34;5055375;28;20040;-42
2022/12/15 01:59:03;;;;;;;34.60;13.82;;;;;;;1.90;67.98;100814.53;5056561;28;20020;-40
2022/12/15 02:01:29;;;;;;;29.40;14.48;;;;;;;1.91;68.45;100816.28;5052912;28;20034;-42
2022/12/15 02:03:54;;;;;;;29.58;14.38;;;;;;;1.99;68.57;100814.97;5052988;28;20032;-40
2022/12/15 02:06:21;;;;;;;28.25;14.65;;;;;;;1.99;68.34;100817.53;5054636;28;20082;-42
2022/12/15 02:08:49;;;;;;;30.60;14.90;;;;;;;2.00;68.20;100824.44;5056240;28;20103;-42
2022/12/15 02:11:17;;;;;;;29.15;14.15;;;;;;;1.92;68.19;100828.34;5055551;28;20503;-42
2022/12/15 02:13:58;;;;;;;28.58;14.43;;;;;;;1.99;67.31;100829.50;5053820;28;20033;-42
2022/12/15 02:16:32;;;;;;;28.88;14.60;;;;;;;1.88;67.75;100838.41;5051432;28;20024;-42
2022/12/15 02:19:07;;;;;;;30.80;15.38;;;;;;;1.76;68.10;100836.16;5052601;28;20493;-45
2022/12/15 02:21:44;;;;;;;36.10;17.02;;;;;;;1.55;69.90;100835.09;5052227;28;20116;-46
2022/12/15 02:24:41;;;;;;;35.60;16.88;;;;;;;1.74;68.48;100839.44;5052556;28;20071;-43
2022/12/15 02:27:38;;;;;;;32.22;16.20;;;;;;;1.77;67.59;100832.75;5052252;28;20485;-41
2022/12/15 02:30:15;;;;;;;33.65;16.13;;;;;;;1.67;67.82;100830.56;5052372;28;20029;-42
2022/12/15 02:33:14;;;;;;;33.50;16.80;;;;;;;1.65;68.04;100833.88;5052331;28;20039;-46
2022/12/15 02:35:42;;;;;;;35.05;16.75;;;;;;;1.67;67.84;100833.13;5052283;28;20032;-42
2022/12/15 02:38:08;;;;;;;39.13;18.35;;;;;;;1.60;68.30;100831.06;5052222;28;20082;-44
2022/12/15 02:40:34;;;;;;;39.00;18.65;;;;;;;1.66;68.64;100833.03;5052189;28;20059;-43
2022/12/15 02:43:02;;;;;;;41.95;19.08;;;;;;;1.68;68.55;100831.44;5052936;28;20045;-41
2022/12/15 02:46:07;;;;;;;39.47;18.75;;;;;;;1.75;68.32;100831.81;5055500;28;20017;-41
2022/12/15 02:48:55;;;;;;;39.80;19.02;;;;;;;1.76;68.16;100828.44;5054255;28;20029;-42
2022/12/15 02:51:58;;;;;;;36.28;17.70;;;;;;;1.75;68.66;100831.81;5051951;28;20074;-42
2022/12/15 02:54:23;;;;;;;40.40;18.85;;;;;;;1.80;67.91;100835.47;5051657;28;20024;-38
2022/12/15 02:56:58;;;;;;;36.90;18.30;;;;;;;1.84;67.91;100837.38;5051975;28;20095;-42
2022/12/15 02:59:54;;;;;;;35.15;17.63;;;;;;;1.79;67.77;100844.00;5052627;28;20033;-43
2022/12/15 03:02:22;;;;;;;40.35;17.80;;;;;;;1.79;67.54;100845.69;5054878;28;20033;-39
2022/12/15 03:04:47;;;;;;;33.45;17.15;;;;;;;1.77;67.56;100837.88;5052845;28;20364;-44
2022/12/15 03:07:13;;;;;;;37.92;18.90;;;;;;;1.70;68.59;100843.56;5052148;28;20362;-42
2022/12/15 03:09:38;;;;;;;43.20;18.95;;;;;;;1.67;68.54;100838.25;5053587;28;20043;-41
2022/12/15 03:12:05;;;;;;;36.30;18.35;;;;;;;1.79;68.71;100837.97;5053884;28;20029;-38
2022/12/15 03:14:30;;;;;;;42.70;18.67;;;;;;;1.87;68.46;100828.94;5051939;28;20025;-42
2022/12/15 03:16:55;;;;;;;38.78;17.88;;;;;;;1.84;68.66;100845.09;5052699;28;20039;-43
2022/12/15 03:19:21;;;;;;;38.65;19.23;;;;;;;1.84;67.89;100847.66;5053752;28;20025;-42
2022/12/15 03:21:46;;;;;;;35.22;17.42;;;;;;;1.83;68.13;100843.31;5053291;28;20029;-39
2022/12/15 03:24:12;;;;;;;35.42;17.05;;;;;;;1.79;67.44;100843.09;5054087;28;20481;-44
2022/12/15 03:26:37;;;;;;;31.92;16.40;;;;;;;1.76;67.91;100851.56;5053632;28;20024;-42
2022/12/15 03:29:02;;;;;;;38.92;17.85;;;;;;;1.64;67.89;100856.13;5053193;28;20028;-41
2022/12/15 03:31:27;;;;;;;35.85;16.70;;;;;;;1.73;68.35;100853.09;5053879;28;20036;-42
2022/12/15 03:33:54;;;;;;;36.40;17.23;;;;;;;1.83;68.62;100861.31;5052649;28;20025;-42
2022/12/15 03:36:21;;;;;;;31.98;15.23;;;;;;;1.88;67.61;100854.72;5052983;28;20056;-41
2022/12/15 03:38:47;;;;;;;30.88;16.20;;;;;;;1.87;68.01;100846.94;5052659;28;20108;-43
2022/12/15 03:41:12;;;;;;;34.92;16.77;;;;;;;1.91;68.02;100854.84;5052367;28;20045;-43
2022/12/15 03:43:37;;;;;;;32.85;16.17;;;;;;;1.88;68.79;100849.59;5051936;28;20428;-40
2022/12/15 03:46:03;;;;;;;29.83;15.02;;;;;;;1.92;68.86;100850.59;5052101;28;20025;-40
2022/12/15 03:48:28;;;;;;;29.33;14.95;;;;;;;1.97;68.36;100841.41;5052127;28;20044;-43
2022/12/15 03:50:54;;;;;;;29.05;15.18;;;;;;;2.01;68.75;100844.19;5051698;28;20048;-43
2022/12/15 03:53:19;;;;;;;28.88;14.73;;;;;;;2.03;67.71;100846.84;5051310;28;20017;-44
2022/12/15 03:55:44;;;;;;;32.75;15.45;;;;;;;1.99;68.13;100843.25;5050774;28;20113;-39
2022/12/15 03:58:10;;;;;;;29.63;15.25;;;;;;;2.01;67.88;100851.91;5051259;28;20512;-41
2022/12/15 04:00:35;;;;;;;31.83;15.07;;;;;;;1.94;68.04;100855.00;5050472;28;20107;-42
2022/12/15 04:03:00;;;;;;;32.55;16.02;;;;;;;1.81;69.44;100855.22;5051091;28;20030;-43
2022/12/15 04:05:29;;;;;;;32.85;16.23;;;;;;;1.86;69.28;100858.00;5050881;28;20512;-44
2022/12/15 04:07:56;;;;;;;33.47;15.95;;;;;;;1.97;69.10;100855.13;5051105;28;20032;-42
2022/12/15 04:10:23;;;;;;;30.70;15.45;;;;;;;2.01;68.41;100848.47;5053083;28;20119;-40
2022/12/15 04:12:55;;;;;;;28.58;14.70;;;;;;;2.00;67.49;100845.03;5056176;28;20486;-42
2022/12/15 04:15:21;;;;;;;28.48;14.40;;;;;;;2.01;68.13;100843.34;5055652;28;20021;-43
2022/12/15 04:17:46;;;;;;;28.60;13.68;;;;;;;1.95;67.74;100843.03;5053968;28;20407;-43
2022/12/15 04:20:11;;;;;;;28.67;13.27;;;;;;;1.93;67.77;100837.81;5051863;28;20048;-40
2022/12/15 04:22:37;;;;;;;27.88;14.30;;;;;;;1.91;67.96;100843.69;5052361;28;20028;-42
2022/12/15 05:33:26;;;;;;;24.90;12.77;;;;;;;1.84;67.81;100877.63;5050911;28;20040;-44
2022/12/15 05:35:56;;;;;;;24.00;12.30;;;;;;;1.87;67.21;100870.94;5051076;28;20411;-44
2022/12/15 05:38:21;;;;;;;22.60;12.30;;;;;;;1.91;68.26;100865.13;5052006;28;20017;-43
2022/12/15 05:40:46;;;;;;;23.95;12.45;;;;;;;1.91;68.10;100870.28;5052973;28;20035;-41
2022/12/15 05:43:12;;;;;;;27.30;12.88;;;;;;;1.71;68.13;100875.28;5053486;28;20125;-42
2022/12/15 05:45:37;;;;;;;23.35;12.75;;;;;;;1.78;67.46;100890.16;5054093;28;20028;-46
2022/12/15 05:48:03;;;;;;;25.50;12.63;;;;;;;1.77;68.10;100886.72;5053978;28;20097;-42
2022/12/15 05:50:28;;;;;;;23.65;12.32;;;;;;;1.83;68.04;100883.59;5053148;28;20025;-40
2022/12/15 05:52:54;;;;;;;24.13;12.95;;;;;;;1.87;68.22;100888.94;5053331;28;20032;-41
2022/12/15 05:55:19;;;;;;;21.95;12.27;;;;;;;1.88;67.82;100889.81;5053318;28;20044;-43
2022/12/15 05:57:54;;;;;;;26.50;12.88;;;;;;;1.93;67.45;100888.34;5053238;28;20417;-43
2022/12/15 06:00:20;;;;;;;;;;;;;;;1.93;67.96;100891.81;5053606;28;20025;-42
2022/12/15 06:02:45;;;;;;;28.08;11.85;;;;;;;1.93;68.42;100894.38;5052700;28;19908;-44
2022/12/15 06:05:11;;;;;;;22.70;12.32;;;;;;;1.92;67.91;100887.47;5052922;28;20025;-43
2022/12/15 06:07:36;;;;;;;22.38;12.02;;;;;;;1.94;67.99;100895.25;5053036;28;20025;-41
2022/12/15 06:10:03;;;;;;;24.33;12.77;;;;;;;1.94;67.42;100906.44;5053461;28;20025;-45
2022/12/15 06:12:28;;;;;;;28.00;13.25;;;;;;;1.91;68.16;100900.25;5055369;28;20084;-46
2022/12/15 06:14:53;;;;;;;24.40;13.02;;;;;;;1.90;68.17;100904.50;5056560;28;20079;-43
2022/12/15 06:17:19;;;;;;;24.15;12.88;;;;;;;1.89;68.32;100910.44;5055263;28;20020;-41
2022/12/15 06:19:44;;;;;;;25.48;13.13;;;;;;;1.96;67.65;100909.06;5055071;28;20021;-41
2022/12/15 06:22:10;;;;;;;22.45;11.93;;;;;;;2.02;68.20;100915.38;5055050;28;20021;-40
2022/12/15 06:24:35;;;;;;;26.05;13.52;;;;;;;2.04;67.71;100910.31;5055966;28;20431;-44
2022/12/15 06:27:00;;;;;;;23.45;12.70;;;;;;;2.06;67.94;100910.41;5056130;28;20112;-44
2022/12/15 06:29:26;;;;;;;26.70;13.57;;;;;;;2.10;68.71;100904.56;5055997;28;20131;-44
2022/12/15 06:31:51;;;;;;;24.65;12.98;;;;;;;2.18;68.20;100909.28;5055015;28;20020;-43
2022/12/15 06:34:16;;;;;;;25.70;12.32;;;;;;;2.24;68.25;100908.69;5055265;28;20028;-43
2022/12/15 06:36:43;;;;;;;22.75;12.10;;;;;;;2.26;68.11;100913.06;5055912;28;20096;-41
2022/12/15 06:39:12;;;;;;;25.40;12.70;;;;;;;2.26;68.31;100907.06;5055327;28;20025;-41
2022/12/15 06:41:38;;;;;;;25.85;13.43;;;;;;;2.28;68.65;100902.88;5055154;28;20045;-42
2022/12/15 06:44:04;;;;;;;23.75;12.25;;;;;;;2.30;68.08;100906.41;5055690;28;20025;-42
2022/12/15 06:46:31;;;;;;;23.90;12.50;;;;;;;2.27;68.67;100912.28;5054962;28;20393;-44
2022/12/15 06:48:57;;;;;;;27.73;13.18;;;;;;;2.21;68.90;100909.41;5055116;28;20036;-41
2022/12/15 06:51:23;;;;;;;26.20;12.45;;;;;;;2.27;68.99;100917.41;5054506;28;20338;-43
2022/12/15 06:53:49;;;;;;;28.25;13.30;;;;;;;2.27;68.30;100917.41;5054184;28;20040;-45
2022/12/15 06:56:20;;;;;;;22.70;12.02;;;;;;;2.26;68.02;100918.22;5052883;28;20138;-42
2022/12/15 06:58:50;;;;;;;21.80;12.13;;;;;;;2.18;68.15;100917.00;5054302;28;20481;-41
2022/12/15 07:01:17;;;;;;;24.98;12.43;;;;;;;2.08;67.71;100914.78;5054130;28;20104;-39
2022/12/15 07:03:43;;;;;;;22.35;12.15;;;;;;;2.01;67.56;100913.59;5053915;28;20028;-40
2022/12/15 07:06:11;;;;;;;24.63;12.15;;;;;;;1.98;67.13;100915.16;5053088;28;20520;-43
2022/12/15 07:08:37;;;;;;;24.23;12.05;;;;;;;1.95;67.49;100922.75;5051581;28;20024;-43
2022/12/15 07:11:04;;;;;;;24.42;12.57;;;;;;;1.93;68.00;100917.50;5051120;28;20025;-43
2022/12/15 07:13:29;;;;;;;22.27;12.43;;;;;;;1.89;68.32;100930.16;5051447;28;20143;-40
2022/12/15 07:16:05;;;;;;;27.65;13.00;;;;;;;1.95;68.14;100933.03;5050025;28;20024;-41
2022/12/15 07:18:31;;;;;;;23.48;12.52;;;;;;;2.03;67.89;100931.69;5051306;28;20025;-42
2022/12/15 07:21:06;;;;;;;25.60;12.52;;;;;;;2.02;67.93;100920.50;5050745;28;20491;-44
2022/12/15 07:23:32;;;;;;;27.92;12.60;;;;;;;2.05;68.01;100914.66;5051307;28;20466;-41
2022/12/15 07:26:02;;;;;;;26.58;12.27;;;;;;;2.05;68.44;100919.78;5050792;28;20461;-42
2022/12/15 07:28:27;;;;;;;22.98;11.68;;;;;;;2.03;67.54;100919.72;5050763;28;20031;-44
2022/12/15 07:30:53;;;;;;;23.63;11.88;;;;;;;2.00;67.40;100922.16;5050378;28;20037;-41
2022/12/15 07:33:18;;;;;;;23.33;11.52;;;;;;;1.95;67.65;100915.88;5050597;28;20051;-41
2022/12/15 07:35:52;;;;;;;25.15;11.65;;;;;;;1.94;67.91;100924.44;5050965;28;20372;-43
2022/12/15 07:38:17;;;;;;;21.35;11.23;;;;;;;1.96;67.63;100922.78;5050890;28;20094;-40
2022/12/15 07:40:42;;;;;;;21.50;10.95;;;;;;;2.00;67.40;100932.44;5050739;28;20025;-42
2022/12/15 07:43:07;;;;;;;22.15;11.52;;;;;;;2.02;67.73;100929.91;5051284;28;20071;-45
2022/12/15 07:45:33;;;;;;;20.25;10.73;;;;;;;2.02;68.13;100935.94;5051480;28;20447;-39
2022/12/15 07:47:58;;;;;;;21.92;10.40;;;;;;;2.08;68.34;100937.94;5051227;28;20028;-42
2022/12/15 07:50:23;;;;;;;21.67;11.60;;;;;;;1.87;68.51;100947.19;5052050;28;20036;-42
2022/12/15 07:52:49;;;;;;;24.15;11.55;;;;;;;1.97;69.21;100947.69;5052703;28;20361;-41
2022/12/15 07:55:15;;;;;;;24.25;11.68;;;;;;;2.09;69.77;100951.66;5051909;28;20051;-40
2022/12/15 07:57:40;;;;;;;24.73;12.15;;;;;;;2.18;68.96;100949.56;5052894;28;20473;-45
2022/12/15 08:00:09;;;;;;;23.63;10.65;;;;;;;2.27;68.82;100944.84;5051825;28;20024;-42
2022/12/15 08:02:34;;;;;;;21.42;10.35;;;;;;;2.31;69.81;100949.34;5051183;28;20025;-44
2022/12/15 08:05:00;;;;;;;18.73;9.65;;;;;;;2.43;70.02;100943.06;5050331;28;20469;-44
2022/12/15 08:07:25;;;;;;;18.77;9.35;;;;;;;2.54;69.94;100938.41;5050886;28;20017;-43
2022/12/15 08:09:50;;;;;;;19.90;9.10;;;;;;;2.73;69.74;100943.59;5050682;28;20024;-43
2022/12/15 08:12:16;;;;;;;24.25;11.13;;;;;;;2.65;69.35;100950.09;5049058;28;20024;-40
2022/12/15 08:14:41;;;;;;;21.55;10.18;;;;;;;2.77;69.06;100955.78;5050613;28;20111;-41
2022/12/15 08:17:06;;;;;;;19.80;9.75;;;;;;;2.79;68.41;100954.19;5050805;28;20104;-44
2022/12/15 08:19:32;;;;;;;16.38;9.35;;;;;;;2.80;69.21;100952.50;5050529;28;20377;-43
2022/12/15 08:21:57;;;;;;;19.85;9.15;;;;;;;2.83;69.19;100955.19;5050031;28;20025;-41
2022/12/15 08:24:22;;;;;;;20.00;9.82;;;;;;;2.80;69.52;100950.81;5050192;28;20025;-45
2022/12/15 08:26:48;;;;;;;20.75;10.10;;;;;;;2.91;69.08;100955.53;5050269;28;20024;-41
2022/12/15 08:29:15;;;;;;;20.48;9.38;;;;;;;2.99;68.50;100957.63;5050053;28;20039;-41
2022/12/15 08:31:40;;;;;;;19.02;8.93;;;;;;;2.97;69.54;100964.44;5049557;28;20033;-42
2022/12/15 08:34:06;;;;;;;21.23;10.00;;;;;;;2.95;69.95;100970.31;5049901;28;20044;-41
2022/12/15 08:36:31;;;;;;;19.45;10.02;;;;;;;3.06;69.55;100967.41;5050007;28;20031;-41
2022/12/15 08:38:59;;;;;;;20.63;10.30;;;;;;;3.12;69.36;100972.81;5050011;28;20124;-41
2022/12/15 08:41:27;;;;;;;21.92;10.27;;;;;;;3.19;69.95;100971.41;5049468;28;20531;-40
2022/12/15 08:43:53;;;;;;;19.20;10.18;;;;;;;3.33;69.62;100964.28;5050102;28;20029;-42
2022/12/15 08:46:30;;;;;;;22.23;10.20;;;;;;;3.37;69.75;100971.31;5049862;28;20017;-43
2022/12/15 08:48:56;;;;;;;19.70;10.30;;;;;;;3.53;69.88;100971.19;5049807;28;20032;-42
2022/12/15 08:51:24;;;;;;;19.58;10.32;;;;;;;3.68;69.65;100971.84;5050104;28;20472;-43
2022/12/15 08:53:49;;;;;;;19.45;10.60;;;;;;;3.75;70.27;100976.44;5050692;28;20430;-43
2022/12/15 08:56:17;;;;;;;19.42;10.05;;;;;;;3.87;70.23;100973.50;5050452;28;20120;-44
2022/12/15 08:58:44;;;;;;;20.00;10.13;;;;;;;4.00;69.91;100984.38;5050781;28;20470;-39
2022/12/15 09:01:16;;;;;;;21.27;10.43;;;;;;;4.09;69.78;100981.28;5049936;28;20040;-43
2022/12/15 09:03:41;;;;;;;19.98;10.23;;;;;;;4.26;69.95;100982.88;5049563;28;20028;-44
2022/12/15 09:06:19;;;;;;;21.67;10.23;;;;;;;4.38;69.64;100982.47;5049840;28;20017;-41
2022/12/15 09:08:44;;;;;;;18.85;10.10;;;;;;;4.50;69.94;100990.72;5050860;28;20048;-41
2022/12/15 09:11:10;;;;;;;17.70;9.88;;;;;;;4.57;69.88;100984.97;5050351;28;20624;-41
2022/12/15 09:13:36;;;;;;;18.13;10.13;;;;;;;4.45;69.87;100985.34;5053827;28;20048;-45
2022/12/15 09:16:11;;;;;;;19.55;9.80;;;;;;;4.68;69.95;100983.69;5054555;28;20033;-43
2022/12/15 09:18:37;;;;;;;24.35;10.48;;;;;;;4.68;69.22;100980.22;5054400;28;20025;-42
2022/12/15 09:21:06;;;;;;;22.58;10.75;;;;;;;4.70;69.12;100988.88;5053512;28;20083;-39
2022/12/15 09:23:31;;;;;;;22.85;10.70;;;;;;;4.68;69.09;100978.53;5053969;28;20086;-43
2022/12/15 09:26:13;;;;;;;21.55;11.35;;;;;;;4.69;68.69;100982.88;5054352;28;20024;-46
2022/12/15 09:28:39;;;;;;;18.85;10.40;;;;;;;4.60;69.63;100992.81;5054491;28;20036;-41
2022/12/15 09:31:07;;;;;;;19.63;10.55;;;;;;;4.70;69.10;100986.31;5053953;28;20116;-45
2022/12/15 09:33:33;;;;;;;21.02;9.98;;;;;;;4.70;69.19;100992.34;5043773;28;20607;-41
2022/12/15 09:35:59;;;;;;;22.55;11.45;;;;;;;4.87;69.43;100996.47;5053311;28;20127;-43
2022/12/15 09:38:24;;;;;;;22.08;11.65;;;;;;;4.96;68.94;100995.94;5053131;28;20032;-41
2022/12/15 09:40:49;;;;;;;26.70;12.93;;;;;;;4.66;69.32;101002.50;5052313;28;20079;-42
2022/12/15 09:43:20;;;;;;;25.35;12.63;;;;;;;4.58;69.92;100993.56;5053037;28;20032;-44
2022/12/15 09:45:53;;;;;;;24.30;12.93;;;;;;;5.07;69.73;101001.50;5053232;28;20021;-42
2022/12/15 09:48:21;;;;;;;27.95;13.48;;;;;;;5.04;69.25;100998.81;5052814;28;20056;-42
2022/12/15 09:50:51;;;;;;;26.10;12.45;;;;;;;5.45;68.75;101005.47;5052038;28;20107;-41
2022/12/15 09:53:17;;;;;;;21.73;11.27;;;;;;;5.49;68.03;100997.88;5052526;28;20021;-42
2022/12/15 09:55:47;;;;;;;22.67;10.95;;;;;;;5.63;67.94;101004.44;5052716;28;20028;-41
2022/12/15 09:58:39;;;;;;;19.30;10.05;;;;;;;5.65;66.89;101002.78;5052690;28;20103;-45
2022/12/15 10:01:12;;;;;;;17.65;9.38;;;;;;;5.83;66.97;100999.97;5052887;28;20216;-39
2022/12/15 10:04:06;;;;;;;20.10;9.77;;;;;;;5.84;66.45;101006.00;5053549;28;20025;-44
2022/12/15 10:07:33;;;;;;;22.42;9.93;;;;;;;5.81;66.63;101019.72;5054125;28;20024;-41
2022/12/15 10:10:05;;;;;;;18.63;9.35;;;;;;;5.83;66.65;101023.25;4992384;28;20034;-40
2022/12/15 10:12:36;;;;;;;20.70;9.95;;;;;;;5.85;66.57;101019.00;5044076;28;20025;-39
2022/12/15 10:15:40;;;;;;;22.60;11.13;;;;;;;5.95;66.77;101022.81;5054389;28;20469;-41
2022/12/15 10:18:31;;;;;;;19.42;10.85;;;;;;;6.00;66.95;101024.72;5041699;28;20048;-39
2022/12/15 10:20:59;;;;;;;20.17;11.48;;;;;;;6.23;67.32;101030.66;5051670;28;20041;-41
2022/12/15 10:23:24;;;;;;;20.55;11.07;;;;;;;6.38;67.15;101031.19;5051436;28;20053;-42
2022/12/15 10:26:22;;;;;;;20.67;11.73;;;;;;;6.53;66.94;101029.06;5052132;28;20477;-42
2022/12/15 10:29:02;;;;;;;29.67;11.02;;;;;;;6.69;66.68;101027.88;5047844;28;20064;-42
2022/12/15 10:31:44;;;;;;;18.40;9.32;;;;;;;6.70;65.69;101016.69;5048079;28;20102;-42
2022/12/15 10:34:22;;;;;;;20.52;9.27;;;;;;;6.22;65.27;101021.13;5031882;28;20029;-40
2022/12/15 10:36:51;;;;;;;15.52;8.40;;;;;;;6.03;65.82;101026.56;5032000;28;20033;-46
2022/12/15 10:39:18;;;;;;;14.88;7.90;;;;;;;6.35;65.10;101025.91;5032028;28;20034;-40
2022/12/15 10:41:43;;;;;;;16.10;8.13;;;;;;;6.46;65.58;101027.13;5031599;28;20025;-41
2022/12/15 10:44:24;;;;;;;16.70;7.95;;;;;;;6.63;65.35;101029.38;5032270;28;20051;-43
2022/12/15 10:46:54;;;;;;;15.65;7.95;;;;;;;6.57;65.01;101018.84;5032034;28;20455;-42
2022/12/15 10:49:22;;;;;;;15.68;7.80;;;;;;;6.30;64.92;101021.41;5031690;28;20096;-41
2022/12/15 10:51:56;;;;;;;15.40;7.90;;;;;;;6.41;64.36;101018.31;5031840;28;20238;-41
2022/12/15 10:54:23;;;;;;;15.77;7.83;;;;;;;6.32;64.50;101027.50;5032086;28;20079;-42
2022/12/15 10:56:56;;;;;;;15.30;7.85;;;;;;;6.14;65.08;101019.16;5031848;28;20296;-40
2022/12/15 10:59:21;;;;;;;15.68;8.50;;;;;;;6.14;65.43;101029.50;5032127;28;20030;-41
2022/12/15 11:01:47;;;;;;;17.85;9.23;;;;;;;6.23;65.92;101028.09;5033346;28;20400;-41
2022/12/15 11:04:27;;;;;;;19.13;9.80;;;;;;;6.34;65.68;101024.13;5031905;28;20087;-41
2022/12/15 11:07:01;;;;;;;20.38;10.45;;;;;;;6.48;66.15;101022.88;5032254;28;20022;-42
2022/12/15 11:09:33;;;;;;;23.73;12.07;;;;;;;6.39;65.78;101026.91;5031791;28;20025;-40
2022/12/15 11:14:47;;;;;;;21.58;11.48;;;;;;;6.46;65.49;101023.69;5031734;28;20172;-42
2022/12/15 11:17:19;;;;;;;23.08;12.10;;;;;;;6.46;65.14;101016.75;5031470;28;20021;-40
2022/12/15 11:20:01;;;;;;;22.10;11.48;;;;;;;6.48;65.45;101014.22;5030889;28;20095;-39
2022/12/15 11:22:44;;;;;;;21.83;11.80;;;;;;;6.56;65.52;101023.13;5031408;28;20034;-43
2022/12/15 11:25:34;;;;;;;24.83;11.52;;;;;;;6.46;65.68;101015.91;5031105;28;20108;-41
2022/12/15 11:28:04;;;;;;;24.60;12.15;;;;;;;6.57;66.03;101021.41;5031643;28;20390;-40
2022/12/15 11:30:37;;;;;;;26.20;11.52;;;;;;;6.72;65.74;101012.41;5030846;28;20453;-39
2022/12/15 11:33:03;;;;;;;19.58;11.15;;;;;;;6.86;65.93;101011.13;5031025;28;20034;-42
2022/12/15 11:36:01;;;;;;;22.45;11.38;;;;;;;6.72;66.16;101011.53;5030602;28;20051;-41
2022/12/15 11:38:46;;;;;;;20.60;10.63;;;;;;;6.86;65.56;101005.94;5031769;28;20036;-43
2022/12/15 11:41:23;;;;;;;19.13;9.55;;;;;;;6.49;66.56;101003.91;5032107;28;20071;-41
2022/12/15 11:44:11;;;;;;;21.35;9.20;;;;;;;6.58;66.05;101013.72;5032887;28;20057;-42
2022/12/15 11:47:06;;;;;;;14.43;8.77;;;;;;;6.58;66.53;101011.13;5032004;28;20025;-42
2022/12/15 11:49:31;;;;;;;15.38;8.13;;;;;;;6.84;66.05;101017.06;5035661;28;20091;-41
2022/12/15 11:52:14;;;;;;;17.67;8.32;;;;;;;6.64;66.58;101008.72;5034883;28;20037;-41
2022/12/15 11:54:52;;;;;;;14.98;8.00;;;;;;;6.78;66.46;101009.13;5033246;28;20021;-41
2022/12/15 11:57:52;;;;;;;18.48;7.22;;;;;;;6.70;66.59;101006.31;5034267;28;20025;-42
2022/12/15 12:00:21;;;;;;;15.63;7.50;;;;;;;6.92;65.90;101007.84;5034908;28;20056;-43
2022/12/15 12:03:12;;;;;;;15.40;7.82;;;;;;;6.85;66.02;101005.88;5035388;28;20057;-39
2022/12/15 12:05:55;;;;;;;14.15;6.97;;;;;;;6.79;66.33;101010.88;5031330;28;20028;-41
2022/12/15 12:08:42;;;;;;;11.90;6.68;;;;;;;6.85;66.39;101005.88;5031044;28;20481;-41
2022/12/15 12:11:12;;;;;;;14.35;6.80;;;;;;;6.98;66.26;101013.22;5030614;28;20036;-41
2022/12/15 12:13:59;;;;;;;12.60;6.82;;;;;;;7.15;65.62;101008.50;5030818;28;20474;-42
2022/12/15 12:16:24;;;;;;;13.63;6.32;;;;;;;7.17;65.59;101002.53;5030296;28;20036;-41
2022/12/15 12:18:56;;;;;;;13.15;6.60;;;;;;;7.26;65.84;100997.59;5030326;28;20025;-39
2022/12/15 12:21:36;;;;;;;10.60;5.95;;;;;;;7.27;65.83;100995.91;5030016;28;20132;-40
2022/12/15 12:24:34;;;;;;;11.65;6.18;;;;;;;7.42;65.48;100988.56;5030470;28;20021;-41
2022/12/15 12:27:20;;;;;;;14.27;6.18;;;;;;;7.44;65.28;100983.44;5021069;28;20052;-41
2022/12/15 12:29:58;;;;;;;10.00;5.50;;;;;;;7.74;64.91;100979.91;5030310;28;20466;-42
2022/12/15 12:32:27;;;;;;;11.27;5.53;;;;;;;7.82;64.83;100977.53;5030368;28;20043;-41
2022/12/15 12:35:07;;;;;;;10.40;5.10;;;;;;;7.88;64.47;100972.50;5030656;28;20545;-43
2022/12/15 12:37:49;;;;;;;9.90;5.13;;;;;;;7.81;64.12;100969.72;5029993;28;20052;-40
2022/12/15 12:40:27;;;;;;;10.30;4.90;;;;;;;7.86;64.62;100958.63;5029970;28;20599;-42
2022/12/15 12:42:55;;;;;;;9.23;4.55;;;;;;;7.86;64.61;100958.63;5030029;28;20579;-42
2022/12/15 12:45:26;;;;;;;10.98;4.72;;;;;;;7.96;64.32;100957.13;5030362;28;20553;-43
2022/12/15 12:47:56;;;;;;;10.20;4.00;;;;;;;7.88;64.20;100962.09;5030173;28;20037;-45
2022/12/15 12:50:25;;;;;;;8.60;4.20;;;;;;;8.10;63.79;100953.16;5029832;28;20064;-39
2022/12/15 12:52:56;;;;;;;6.75;3.50;;;;;;;8.07;63.20;100951.34;5030065;28;20508;-41
2022/12/15 12:55:25;;;;;;;8.38;3.40;;;;;;;7.87;63.30;100944.78;5029731;28;20030;-41
2022/12/15 12:57:51;;;;;;;7.80;3.30;;;;;;;7.71;63.05;100948.72;5029900;28;20029;-43
2022/12/15 13:00:20;;;;;;;6.60;2.55;;;;;;;7.90;62.07;100939.69;5029875;28;20496;-38
2022/12/15 13:02:53;;;;;;;6.90;2.50;;;;;;;7.86;61.91;100936.97;5029696;28;20036;-43
2022/12/15 13:05:36;;;;;;;9.13;2.40;;;;;;;8.05;61.33;100939.19;5029910;28;20021;-40
2022/12/15 13:08:04;;;;;;;8.02;2.00;;;;;;;7.67;60.39;100939.09;5030139;28;20083;-42
2022/12/15 13:10:30;;;;;;;10.68;1.75;;;;;;;7.91;60.01;100935.38;5029359;28;20209;-43
2022/12/15 13:12:58;;;;;;;4.97;1.50;;;;;;;7.93;59.21;100938.88;5030363;28;20029;-40
2022/12/15 13:15:26;;;;;;;4.93;1.60;;;;;;;7.80;59.08;100942.00;5029414;28;20017;-41
2022/12/15 13:17:57;;;;;;;7.25;1.23;;;;;;;7.97;58.55;100936.41;5029512;28;20482;-40
2022/12/15 13:20:25;;;;;;;7.70;1.67;;;;;;;8.15;58.25;100934.25;5028979;28;20033;-42
2022/12/15 13:22:52;;;;;;;6.03;1.40;;;;;;;7.98;58.29;100938.16;5029761;28;20478;-39
2022/12/15 13:25:34;;;;;;;6.90;1.60;;;;;;;7.74;58.15;100942.72;5029708;28;20103;-40
2022/12/15 13:28:10;;;;;;;6.40;1.30;;;;;;;7.84;57.70;100936.94;5029569;28;20025;-39
2022/12/15 13:30:35;;;;;;;9.95;1.85;;;;;;;7.65;56.72;100934.69;5029314;28;20032;-42
2022/12/15 13:33:16;;;;;;;6.72;1.40;;;;;;;7.91;56.96;100917.19;5029533;28;20753;-41
2022/12/15 13:35:42;;;;;;;6.15;1.27;;;;;;;7.77;56.80;100919.44;5029420;28;20029;-42
2022/12/15 13:38:17;;;;;;;5.25;1.15;;;;;;;7.93;56.59;100911.19;5029420;28;20497;-44
2022/12/15 13:40:50;;;;;;;6.90;1.75;;;;;;;7.88;56.63;100920.59;5029489;28;20537;-40
2022/12/15 13:43:25;;;;;;;9.70;1.60;;;;;;;7.85;57.24;100919.63;5030243;28;20358;-43
2022/12/15 13:45:54;;;;;;;3.63;1.23;;;;;;;7.77;57.02;100919.44;5032865;28;20500;-41
2022/12/15 13:48:22;;;;;;;5.05;1.55;;;;;;;7.62;57.14;100922.50;5032372;28;20022;-42
2022/12/15 13:50:56;;;;;;;4.57;1.48;;;;;;;7.66;57.58;100916.56;5030677;28;20036;-43
2022/12/15 13:53:24;;;;;;;5.18;1.60;;;;;;;7.49;56.50;100919.56;5029663;28;20079;-44
2022/12/15 13:56:04;;;;;;;9.38;2.00;;;;;;;7.49;56.24;100917.88;5029892;28;20049;-43
2022/12/15 13:58:38;;;;;;;7.85;2.10;;;;;;;7.60;55.88;100918.13;5030753;28;20044;-41